METAR rapporten vliegvelden

   
EHVK - Volkel Rnlafb, Netherlands
Afstand tot: ZW 18 km
Gewijzigd: 18-09-2019 09:55
Grotendeels bewolkt  
Grotendeels bewolkt  
   Wind: varieert 1.9 km/h
Wind: varieert 1.9 km/h
Temperatuur: 14°C
Dauwpunt: 9°C
Vochtigheid: 72%
Barometer: 1027 hPa
Bewolking: Grotendeels bewolkt
Zicht: meer dan 10 km
Bewolking: Grotendeels bewolkt 5500 ft
EHVK 180755Z AUTO VRB01KT 9999 BKN055 14/09 Q1027 BLU VRB03KT CAVOK
EDLV - Niederrhein, Germany
Afstand tot: ZO 25 km
Gewijzigd: 18-09-2019 09:50
Helder  
Helder  
   Wind: varieert 5.6 km/h
Wind: varieert 5.6 km/h
Temperatuur: 12°C
Dauwpunt: 9°C
Vochtigheid: 82%
Barometer: 1027 hPa
Zicht: meer dan 10 km
Bewolking: Helder
EDLV 180750Z VRB03KT CAVOK 12/09 Q1027
EHDL - Deelen Rnlafb, Netherlands
Afstand tot: N 35 km
Gewijzigd: 18-09-2019 09:55
Grotendeels bewolkt  
Grotendeels bewolkt  
   Wind: NW 5.6 km/h
Wind: NW 5.6 km/h
Temperatuur: 12°C
Dauwpunt: 9°C
Vochtigheid: 82%
Barometer: 1027 hPa
Bewolking: Grotendeels bewolkt
Zicht: meer dan 10 km
Bewolking: Grotendeels bewolkt 5600 ft
EHDL 180755Z AUTO 32003KT 240V010 9999 BKN056 12/09 Q1027 BLU
EHEH - Eindhoven Rnlafb, Netherlands
Afstand tot: ZW 48 km
Gewijzigd: 18-09-2019 09:55
Gedeeltelijk bewolkt  
Gedeeltelijk bewolkt  
   Wind: NW 5.6 km/h
Wind: NW 5.6 km/h
Temperatuur: 12°C
Dauwpunt: 8°C
Vochtigheid: 77%
Barometer: 1028 hPa
Bewolking: Gedeeltelijk bewolkt
Zicht: meer dan 10 km
Bewolking: Gedeeltelijk bewolkt 5500 ft
EHEH 180755Z AUTO 31003KT 210V020 9999 SCT055 12/08 Q1028 BLU VRB02KT CAVOK
EHGR - Gilze-Rijen Rnla, Netherlands
Afstand tot: WZW 70 km
Gewijzigd: 18-09-2019 09:55
Bewolking  
Bewolking  
   Wind: WNW 5.6 km/h
Wind: WNW 5.6 km/h
Temperatuur: 12°C
Dauwpunt: 8°C
Vochtigheid: 77%
Barometer: 1028 hPa
Bewolking: Bewolking
Zicht: meer dan 10 km
Bewolking: Gedeeltelijk bewolkt 4200 ft,
Bewolking 5200 ft
EHGR 180755Z AUTO 29003KT 230V350 9999 SCT042 OVC052 12/08 Q1028 BLU 25004KT 9999 SCT048
EBBL - Kleine-Brogel(Ba, Belgium
Afstand tot: ZZW 71 km
Gewijzigd: 18-09-2019 09:55
Licht bewolkt  
Licht bewolkt  
   Wind: varieert 3.7 km/h
Wind: varieert 3.7 km/h
Temperatuur: 13°C
Dauwpunt: 8°C
Vochtigheid: 72%
Barometer: 1028 hPa
Bewolking: Licht bewolkt
Zicht: meer dan 10 km
Bewolking: Licht bewolkt 4500 ft
EBBL 180755Z VRB02KT 9999 FEW045 13/08 Q1028 BLU BLU

Script ontwikkeld door  Saratoga-weather.org Aangepast voor de template door  Weerstation Leuven

U vindt ons ook hier:

Het Weer Aktueel

European Weather Network

WeatherCloud

Weather Underground

Benelux Weer Netwerk

Apparatuur in gebruik:

Weerstation
Davis VP2

Weerprogramma
consoleWD

Weercomputer
Raspberry

Webleverancier
Stef van Bakel koeltechniek

Davis VP2

consoleWD

Raspberry

Stef van Bakel koeltechniek